sensor_id;sensor_type;location;lat;lon;timestamp;P1;durP1;ratioP1;P2;durP2;ratioP2
13040;SDS011;6587;42.728;23.288;2023-12-20T00:01:01;236.47;;;114.73;;
13040;SDS011;6587;42.728;23.288;2023-12-20T00:03:28;256.20;;;116.00;;
13040;SDS011;6587;42.728;23.288;2023-12-20T00:05:55;181.27;;;84.67;;
13040;SDS011;6587;42.728;23.288;2023-12-20T00:08:22;249.67;;;121.27;;
13040;SDS011;6587;42.728;23.288;2023-12-20T00:10:51;194.07;;;91.07;;
13040;SDS011;6587;42.728;23.288;2023-12-20T00:13:22;244.37;;;119.23;;
13040;SDS011;6587;42.728;23.288;2023-12-20T00:15:57;243.53;;;114.23;;
13040;SDS011;6587;42.728;23.288;2023-12-20T00:18:27;279.53;;;130.20;;
13040;SDS011;6587;42.728;23.288;2023-12-20T00:20:54;254.63;;;118.50;;
13040;SDS011;6587;42.728;23.288;2023-12-20T00:23:21;264.40;;;128.33;;
13040;SDS011;6587;42.728;23.288;2023-12-20T00:25:48;217.23;;;103.57;;
13040;SDS011;6587;42.728;23.288;2023-12-20T00:28:15;223.30;;;100.53;;
13040;SDS011;6587;42.728;23.288;2023-12-20T00:30:42;222.17;;;107.03;;
13040;SDS011;6587;42.728;23.288;2023-12-20T00:33:10;200.83;;;99.57;;
13040;SDS011;6587;42.728;23.288;2023-12-20T00:35:37;200.70;;;90.83;;
13040;SDS011;6587;42.728;23.288;2023-12-20T00:38:04;213.37;;;99.67;;
13040;SDS011;6587;42.728;23.288;2023-12-20T00:40:32;219.00;;;103.93;;
13040;SDS011;6587;42.728;23.288;2023-12-20T00:42:59;217.13;;;101.70;;
13040;SDS011;6587;42.728;23.288;2023-12-20T00:45:26;219.10;;;101.60;;
13040;SDS011;6587;42.728;23.288;2023-12-20T00:47:53;193.50;;;93.37;;
13040;SDS011;6587;42.728;23.288;2023-12-20T00:50:21;191.17;;;86.60;;
13040;SDS011;6587;42.728;23.288;2023-12-20T00:52:48;194.63;;;89.50;;
13040;SDS011;6587;42.728;23.288;2023-12-20T00:55:15;189.23;;;91.50;;
13040;SDS011;6587;42.728;23.288;2023-12-20T00:57:42;187.60;;;89.73;;
13040;SDS011;6587;42.728;23.288;2023-12-20T01:00:09;185.80;;;89.17;;
13040;SDS011;6587;42.728;23.288;2023-12-20T01:02:38;190.40;;;86.93;;
13040;SDS011;6587;42.728;23.288;2023-12-20T01:05:06;182.23;;;87.53;;
13040;SDS011;6587;42.728;23.288;2023-12-20T01:07:36;191.77;;;89.40;;
13040;SDS011;6587;42.728;23.288;2023-12-20T01:10:03;199.97;;;92.50;;
13040;SDS011;6587;42.728;23.288;2023-12-20T01:12:30;177.73;;;85.93;;
13040;SDS011;6587;42.728;23.288;2023-12-20T01:14:57;174.57;;;77.10;;
13040;SDS011;6587;42.728;23.288;2023-12-20T01:17:24;182.53;;;84.60;;
13040;SDS011;6587;42.728;23.288;2023-12-20T01:19:51;169.80;;;76.57;;
13040;SDS011;6587;42.728;23.288;2023-12-20T01:22:18;152.20;;;72.27;;
13040;SDS011;6587;42.728;23.288;2023-12-20T01:24:46;168.77;;;74.63;;
13040;SDS011;6587;42.728;23.288;2023-12-20T01:27:13;161.33;;;70.97;;
13040;SDS011;6587;42.728;23.288;2023-12-20T01:29:40;141.00;;;61.40;;
13040;SDS011;6587;42.728;23.288;2023-12-20T01:32:07;142.77;;;62.93;;
13040;SDS011;6587;42.728;23.288;2023-12-20T01:34:34;142.93;;;64.57;;
13040;SDS011;6587;42.728;23.288;2023-12-20T01:37:00;143.20;;;65.33;;
13040;SDS011;6587;42.728;23.288;2023-12-20T01:39:28;145.20;;;61.93;;
13040;SDS011;6587;42.728;23.288;2023-12-20T01:41:56;133.23;;;60.43;;
13040;SDS011;6587;42.728;23.288;2023-12-20T01:44:24;132.93;;;60.63;;
13040;SDS011;6587;42.728;23.288;2023-12-20T01:46:52;143.33;;;61.13;;
13040;SDS011;6587;42.728;23.288;2023-12-20T01:49:19;147.73;;;65.27;;
13040;SDS011;6587;42.728;23.288;2023-12-20T01:51:47;153.80;;;64.30;;
13040;SDS011;6587;42.728;23.288;2023-12-20T01:54:14;157.93;;;67.20;;
13040;SDS011;6587;42.728;23.288;2023-12-20T01:56:42;170.27;;;70.07;;
13040;SDS011;6587;42.728;23.288;2023-12-20T01:59:10;211.03;;;88.90;;
13040;SDS011;6587;42.728;23.288;2023-12-20T02:01:38;228.70;;;90.07;;
13040;SDS011;6587;42.728;23.288;2023-12-20T02:04:05;253.30;;;100.70;;
13040;SDS011;6587;42.728;23.288;2023-12-20T02:06:32;269.93;;;104.83;;
13040;SDS011;6587;42.728;23.288;2023-12-20T02:09:00;243.27;;;93.23;;
13040;SDS011;6587;42.728;23.288;2023-12-20T02:11:27;250.93;;;91.53;;
13040;SDS011;6587;42.728;23.288;2023-12-20T02:13:55;231.97;;;86.70;;
13040;SDS011;6587;42.728;23.288;2023-12-20T02:16:23;202.83;;;80.80;;
13040;SDS011;6587;42.728;23.288;2023-12-20T02:18:50;170.73;;;71.63;;
13040;SDS011;6587;42.728;23.288;2023-12-20T02:21:17;183.57;;;70.77;;
13040;SDS011;6587;42.728;23.288;2023-12-20T02:23:45;176.67;;;67.53;;
13040;SDS011;6587;42.728;23.288;2023-12-20T02:26:12;177.97;;;68.37;;
13040;SDS011;6587;42.728;23.288;2023-12-20T02:28:39;171.87;;;69.63;;
13040;SDS011;6587;42.728;23.288;2023-12-20T02:31:06;185.90;;;66.97;;
13040;SDS011;6587;42.728;23.288;2023-12-20T02:33:33;175.87;;;64.30;;
13040;SDS011;6587;42.728;23.288;2023-12-20T02:36:00;185.13;;;69.33;;
13040;SDS011;6587;42.728;23.288;2023-12-20T02:38:27;218.43;;;66.90;;
13040;SDS011;6587;42.728;23.288;2023-12-20T02:40:55;198.20;;;66.30;;
13040;SDS011;6587;42.728;23.288;2023-12-20T02:43:22;185.83;;;61.73;;
13040;SDS011;6587;42.728;23.288;2023-12-20T02:45:49;168.87;;;60.73;;
13040;SDS011;6587;42.728;23.288;2023-12-20T02:48:16;161.07;;;60.47;;
13040;SDS011;6587;42.728;23.288;2023-12-20T02:50:43;171.97;;;57.17;;
13040;SDS011;6587;42.728;23.288;2023-12-20T02:53:09;150.00;;;55.13;;
13040;SDS011;6587;42.728;23.288;2023-12-20T02:55:36;176.13;;;57.13;;
13040;SDS011;6587;42.728;23.288;2023-12-20T02:58:04;169.40;;;56.10;;
13040;SDS011;6587;42.728;23.288;2023-12-20T03:00:31;154.50;;;55.00;;
13040;SDS011;6587;42.728;23.288;2023-12-20T03:02:58;154.13;;;54.60;;
13040;SDS011;6587;42.728;23.288;2023-12-20T03:05:25;156.90;;;54.93;;
13040;SDS011;6587;42.728;23.288;2023-12-20T03:07:53;158.27;;;56.73;;
13040;SDS011;6587;42.728;23.288;2023-12-20T03:10:20;152.83;;;53.83;;
13040;SDS011;6587;42.728;23.288;2023-12-20T03:12:47;142.63;;;50.93;;
13040;SDS011;6587;42.728;23.288;2023-12-20T03:15:15;145.40;;;50.30;;
13040;SDS011;6587;42.728;23.288;2023-12-20T03:17:42;137.23;;;50.13;;
13040;SDS011;6587;42.728;23.288;2023-12-20T03:20:09;157.10;;;51.17;;
13040;SDS011;6587;42.728;23.288;2023-12-20T03:22:36;116.50;;;44.03;;
13040;SDS011;6587;42.728;23.288;2023-12-20T03:25:03;120.77;;;42.13;;
13040;SDS011;6587;42.728;23.288;2023-12-20T03:27:30;128.60;;;43.60;;
13040;SDS011;6587;42.728;23.288;2023-12-20T03:29:57;137.27;;;45.77;;
13040;SDS011;6587;42.728;23.288;2023-12-20T03:32:25;131.87;;;47.33;;
13040;SDS011;6587;42.728;23.288;2023-12-20T03:34:52;124.00;;;49.30;;
13040;SDS011;6587;42.728;23.288;2023-12-20T03:37:19;129.67;;;47.97;;
13040;SDS011;6587;42.728;23.288;2023-12-20T03:39:46;141.03;;;47.80;;
13040;SDS011;6587;42.728;23.288;2023-12-20T03:42:13;133.00;;;49.47;;
13040;SDS011;6587;42.728;23.288;2023-12-20T03:44:39;138.47;;;48.83;;
13040;SDS011;6587;42.728;23.288;2023-12-20T03:47:06;145.70;;;53.67;;
13040;SDS011;6587;42.728;23.288;2023-12-20T03:49:35;123.07;;;48.37;;
13040;SDS011;6587;42.728;23.288;2023-12-20T03:52:04;154.33;;;51.17;;
13040;SDS011;6587;42.728;23.288;2023-12-20T03:54:33;131.13;;;48.23;;
13040;SDS011;6587;42.728;23.288;2023-12-20T03:57:01;129.83;;;48.23;;
13040;SDS011;6587;42.728;23.288;2023-12-20T03:59:28;149.70;;;49.17;;
13040;SDS011;6587;42.728;23.288;2023-12-20T04:01:55;118.93;;;45.30;;
13040;SDS011;6587;42.728;23.288;2023-12-20T04:04:22;121.30;;;43.43;;
13040;SDS011;6587;42.728;23.288;2023-12-20T04:06:50;114.27;;;44.87;;
13040;SDS011;6587;42.728;23.288;2023-12-20T04:09:17;110.47;;;43.77;;
13040;SDS011;6587;42.728;23.288;2023-12-20T04:11:44;197.03;;;52.20;;
13040;SDS011;6587;42.728;23.288;2023-12-20T04:14:11;133.63;;;51.17;;
13040;SDS011;6587;42.728;23.288;2023-12-20T04:16:39;151.63;;;55.10;;
13040;SDS011;6587;42.728;23.288;2023-12-20T04:19:06;132.00;;;53.10;;
13040;SDS011;6587;42.728;23.288;2023-12-20T04:21:33;188.67;;;60.53;;
13040;SDS011;6587;42.728;23.288;2023-12-20T04:24:01;190.00;;;63.80;;
13040;SDS011;6587;42.728;23.288;2023-12-20T04:26:28;151.13;;;58.53;;
13040;SDS011;6587;42.728;23.288;2023-12-20T04:28:55;158.00;;;58.73;;
13040;SDS011;6587;42.728;23.288;2023-12-20T04:31:22;165.17;;;59.30;;
13040;SDS011;6587;42.728;23.288;2023-12-20T04:33:49;152.33;;;58.60;;
13040;SDS011;6587;42.728;23.288;2023-12-20T04:36:16;163.37;;;59.60;;
13040;SDS011;6587;42.728;23.288;2023-12-20T04:38:43;155.37;;;59.57;;
13040;SDS011;6587;42.728;23.288;2023-12-20T04:41:11;164.03;;;58.83;;
13040;SDS011;6587;42.728;23.288;2023-12-20T04:43:41;216.73;;;62.03;;
13040;SDS011;6587;42.728;23.288;2023-12-20T04:46:08;166.37;;;58.67;;
13040;SDS011;6587;42.728;23.288;2023-12-20T04:48:34;147.33;;;54.97;;
13040;SDS011;6587;42.728;23.288;2023-12-20T04:51:01;183.00;;;54.23;;
13040;SDS011;6587;42.728;23.288;2023-12-20T04:53:28;133.00;;;49.50;;
13040;SDS011;6587;42.728;23.288;2023-12-20T04:55:55;132.13;;;47.43;;
13040;SDS011;6587;42.728;23.288;2023-12-20T04:58:24;146.43;;;46.37;;
13040;SDS011;6587;42.728;23.288;2023-12-20T05:00:50;106.63;;;41.60;;
13040;SDS011;6587;42.728;23.288;2023-12-20T05:03:17;103.20;;;38.90;;
13040;SDS011;6587;42.728;23.288;2023-12-20T05:05:44;119.83;;;42.87;;
13040;SDS011;6587;42.728;23.288;2023-12-20T05:08:12;118.80;;;39.17;;
13040;SDS011;6587;42.728;23.288;2023-12-20T05:10:38;128.13;;;39.07;;
13040;SDS011;6587;42.728;23.288;2023-12-20T05:13:05;72.40;;;32.40;;
13040;SDS011;6587;42.728;23.288;2023-12-20T05:15:34;95.27;;;32.37;;
13040;SDS011;6587;42.728;23.288;2023-12-20T05:18:01;113.93;;;32.30;;
13040;SDS011;6587;42.728;23.288;2023-12-20T05:20:28;99.60;;;33.87;;
13040;SDS011;6587;42.728;23.288;2023-12-20T05:22:55;111.67;;;33.17;;
13040;SDS011;6587;42.728;23.288;2023-12-20T05:25:22;82.70;;;31.87;;
13040;SDS011;6587;42.728;23.288;2023-12-20T05:27:49;87.90;;;33.40;;
13040;SDS011;6587;42.728;23.288;2023-12-20T05:30:16;79.03;;;31.50;;
13040;SDS011;6587;42.728;23.288;2023-12-20T05:32:44;109.70;;;36.03;;
13040;SDS011;6587;42.728;23.288;2023-12-20T05:35:11;84.53;;;36.87;;
13040;SDS011;6587;42.728;23.288;2023-12-20T05:37:38;160.83;;;39.43;;
13040;SDS011;6587;42.728;23.288;2023-12-20T05:40:06;119.37;;;37.97;;
13040;SDS011;6587;42.728;23.288;2023-12-20T05:42:35;115.10;;;38.50;;
13040;SDS011;6587;42.728;23.288;2023-12-20T05:45:03;89.47;;;34.17;;
13040;SDS011;6587;42.728;23.288;2023-12-20T05:47:31;115.37;;;38.30;;
13040;SDS011;6587;42.728;23.288;2023-12-20T05:49:59;78.60;;;33.10;;
13040;SDS011;6587;42.728;23.288;2023-12-20T05:52:26;74.53;;;31.57;;
13040;SDS011;6587;42.728;23.288;2023-12-20T05:54:53;88.23;;;33.60;;
13040;SDS011;6587;42.728;23.288;2023-12-20T05:57:21;96.87;;;34.63;;
13040;SDS011;6587;42.728;23.288;2023-12-20T05:59:48;73.90;;;31.07;;
13040;SDS011;6587;42.728;23.288;2023-12-20T06:02:15;78.27;;;31.40;;
13040;SDS011;6587;42.728;23.288;2023-12-20T06:04:42;70.73;;;31.50;;
13040;SDS011;6587;42.728;23.288;2023-12-20T06:07:12;73.97;;;30.33;;
13040;SDS011;6587;42.728;23.288;2023-12-20T06:09:39;73.40;;;32.43;;
13040;SDS011;6587;42.728;23.288;2023-12-20T06:12:06;72.70;;;29.67;;
13040;SDS011;6587;42.728;23.288;2023-12-20T06:14:33;81.90;;;33.33;;
13040;SDS011;6587;42.728;23.288;2023-12-20T06:17:00;73.07;;;32.83;;
13040;SDS011;6587;42.728;23.288;2023-12-20T06:19:27;87.17;;;32.33;;
13040;SDS011;6587;42.728;23.288;2023-12-20T06:21:54;80.03;;;32.23;;
13040;SDS011;6587;42.728;23.288;2023-12-20T06:24:23;76.43;;;33.27;;
13040;SDS011;6587;42.728;23.288;2023-12-20T06:26:53;69.63;;;30.90;;
13040;SDS011;6587;42.728;23.288;2023-12-20T06:29:20;78.03;;;31.90;;
13040;SDS011;6587;42.728;23.288;2023-12-20T06:31:46;72.80;;;31.10;;
13040;SDS011;6587;42.728;23.288;2023-12-20T06:34:13;68.43;;;29.73;;
13040;SDS011;6587;42.728;23.288;2023-12-20T06:36:40;80.63;;;33.03;;
13040;SDS011;6587;42.728;23.288;2023-12-20T06:39:07;102.87;;;39.60;;
13040;SDS011;6587;42.728;23.288;2023-12-20T06:41:35;133.07;;;46.50;;
13040;SDS011;6587;42.728;23.288;2023-12-20T06:44:02;138.27;;;44.63;;
13040;SDS011;6587;42.728;23.288;2023-12-20T06:46:29;141.47;;;43.30;;
13040;SDS011;6587;42.728;23.288;2023-12-20T06:48:56;125.70;;;45.20;;
13040;SDS011;6587;42.728;23.288;2023-12-20T06:51:23;109.30;;;42.47;;
13040;SDS011;6587;42.728;23.288;2023-12-20T06:53:51;120.93;;;43.67;;
13040;SDS011;6587;42.728;23.288;2023-12-20T06:56:18;106.90;;;44.97;;
13040;SDS011;6587;42.728;23.288;2023-12-20T06:58:46;106.43;;;42.40;;
13040;SDS011;6587;42.728;23.288;2023-12-20T07:01:13;140.43;;;46.00;;
13040;SDS011;6587;42.728;23.288;2023-12-20T07:03:41;135.87;;;47.47;;
13040;SDS011;6587;42.728;23.288;2023-12-20T07:06:08;171.40;;;49.27;;
13040;SDS011;6587;42.728;23.288;2023-12-20T07:08:35;133.23;;;51.03;;
13040;SDS011;6587;42.728;23.288;2023-12-20T07:11:01;131.13;;;49.63;;
13040;SDS011;6587;42.728;23.288;2023-12-20T07:13:29;140.27;;;48.70;;
13040;SDS011;6587;42.728;23.288;2023-12-20T07:15:57;130.13;;;49.60;;
13040;SDS011;6587;42.728;23.288;2023-12-20T07:18:24;147.40;;;53.17;;
13040;SDS011;6587;42.728;23.288;2023-12-20T07:20:51;134.80;;;48.97;;
13040;SDS011;6587;42.728;23.288;2023-12-20T07:23:19;136.00;;;49.10;;
13040;SDS011;6587;42.728;23.288;2023-12-20T07:25:46;142.90;;;51.00;;
13040;SDS011;6587;42.728;23.288;2023-12-20T07:28:13;152.10;;;50.77;;
13040;SDS011;6587;42.728;23.288;2023-12-20T07:30:40;147.93;;;50.27;;
13040;SDS011;6587;42.728;23.288;2023-12-20T07:33:08;138.20;;;49.27;;
13040;SDS011;6587;42.728;23.288;2023-12-20T07:35:37;145.63;;;50.13;;
13040;SDS011;6587;42.728;23.288;2023-12-20T07:38:04;106.97;;;42.33;;
13040;SDS011;6587;42.728;23.288;2023-12-20T07:40:31;122.00;;;42.93;;
13040;SDS011;6587;42.728;23.288;2023-12-20T07:42:58;138.13;;;45.63;;
13040;SDS011;6587;42.728;23.288;2023-12-20T07:45:25;121.63;;;45.00;;
13040;SDS011;6587;42.728;23.288;2023-12-20T07:47:52;106.80;;;40.90;;
13040;SDS011;6587;42.728;23.288;2023-12-20T07:50:21;109.63;;;40.27;;
13040;SDS011;6587;42.728;23.288;2023-12-20T07:52:47;113.90;;;42.40;;
13040;SDS011;6587;42.728;23.288;2023-12-20T07:55:14;114.67;;;42.03;;
13040;SDS011;6587;42.728;23.288;2023-12-20T07:57:41;109.83;;;42.57;;
13040;SDS011;6587;42.728;23.288;2023-12-20T08:00:08;116.10;;;45.53;;
13040;SDS011;6587;42.728;23.288;2023-12-20T08:02:36;135.47;;;47.07;;
13040;SDS011;6587;42.728;23.288;2023-12-20T08:05:03;123.27;;;46.53;;
13040;SDS011;6587;42.728;23.288;2023-12-20T08:07:31;165.57;;;51.67;;
13040;SDS011;6587;42.728;23.288;2023-12-20T08:09:58;121.03;;;44.63;;
13040;SDS011;6587;42.728;23.288;2023-12-20T08:12:25;114.40;;;42.57;;
13040;SDS011;6587;42.728;23.288;2023-12-20T08:14:53;117.67;;;43.30;;
13040;SDS011;6587;42.728;23.288;2023-12-20T08:17:20;114.77;;;45.33;;
13040;SDS011;6587;42.728;23.288;2023-12-20T08:19:48;115.57;;;42.43;;
13040;SDS011;6587;42.728;23.288;2023-12-20T08:22:15;111.63;;;43.07;;
13040;SDS011;6587;42.728;23.288;2023-12-20T08:24:43;120.37;;;44.20;;
13040;SDS011;6587;42.728;23.288;2023-12-20T08:27:10;121.37;;;44.97;;
13040;SDS011;6587;42.728;23.288;2023-12-20T08:29:37;127.57;;;46.53;;
13040;SDS011;6587;42.728;23.288;2023-12-20T08:32:04;108.90;;;43.33;;
13040;SDS011;6587;42.728;23.288;2023-12-20T08:34:31;109.20;;;42.37;;
13040;SDS011;6587;42.728;23.288;2023-12-20T08:36:58;109.57;;;45.07;;
13040;SDS011;6587;42.728;23.288;2023-12-20T08:39:25;118.43;;;44.73;;
13040;SDS011;6587;42.728;23.288;2023-12-20T08:41:54;115.03;;;44.07;;
13040;SDS011;6587;42.728;23.288;2023-12-20T08:44:21;110.23;;;44.53;;
13040;SDS011;6587;42.728;23.288;2023-12-20T08:46:47;128.27;;;47.73;;
13040;SDS011;6587;42.728;23.288;2023-12-20T08:49:14;125.57;;;48.97;;
13040;SDS011;6587;42.728;23.288;2023-12-20T08:51:42;131.93;;;48.53;;
13040;SDS011;6587;42.728;23.288;2023-12-20T08:54:09;121.50;;;47.23;;
13040;SDS011;6587;42.728;23.288;2023-12-20T08:56:35;133.13;;;52.70;;
13040;SDS011;6587;42.728;23.288;2023-12-20T08:59:04;129.87;;;52.27;;
13040;SDS011;6587;42.728;23.288;2023-12-20T09:01:31;143.57;;;53.50;;
13040;SDS011;6587;42.728;23.288;2023-12-20T09:04:00;138.67;;;55.30;;
13040;SDS011;6587;42.728;23.288;2023-12-20T09:06:27;146.10;;;52.60;;
13040;SDS011;6587;42.728;23.288;2023-12-20T09:08:54;140.50;;;56.40;;
13040;SDS011;6587;42.728;23.288;2023-12-20T09:11:21;144.43;;;55.23;;
13040;SDS011;6587;42.728;23.288;2023-12-20T09:13:47;153.07;;;57.00;;
13040;SDS011;6587;42.728;23.288;2023-12-20T09:16:16;157.77;;;55.67;;
13040;SDS011;6587;42.728;23.288;2023-12-20T09:18:42;164.73;;;60.40;;
13040;SDS011;6587;42.728;23.288;2023-12-20T09:21:09;175.70;;;61.13;;
13040;SDS011;6587;42.728;23.288;2023-12-20T09:23:36;179.23;;;63.47;;
13040;SDS011;6587;42.728;23.288;2023-12-20T09:26:03;194.07;;;64.83;;
13040;SDS011;6587;42.728;23.288;2023-12-20T09:28:31;171.97;;;60.60;;
13040;SDS011;6587;42.728;23.288;2023-12-20T09:31:02;170.13;;;60.90;;
13040;SDS011;6587;42.728;23.288;2023-12-20T09:33:31;166.77;;;56.90;;
13040;SDS011;6587;42.728;23.288;2023-12-20T09:35:58;161.07;;;56.07;;
13040;SDS011;6587;42.728;23.288;2023-12-20T09:38:25;146.53;;;54.17;;
13040;SDS011;6587;42.728;23.288;2023-12-20T09:40:52;154.27;;;56.83;;
13040;SDS011;6587;42.728;23.288;2023-12-20T09:43:20;158.23;;;56.67;;
13040;SDS011;6587;42.728;23.288;2023-12-20T09:45:52;157.77;;;56.10;;
13040;SDS011;6587;42.728;23.288;2023-12-20T09:48:20;137.40;;;53.80;;
13040;SDS011;6587;42.728;23.288;2023-12-20T09:50:48;125.90;;;49.93;;
13040;SDS011;6587;42.728;23.288;2023-12-20T09:53:15;129.10;;;51.93;;
13040;SDS011;6587;42.728;23.288;2023-12-20T09:55:44;132.73;;;50.10;;
13040;SDS011;6587;42.728;23.288;2023-12-20T09:58:11;138.07;;;50.90;;
13040;SDS011;6587;42.728;23.288;2023-12-20T10:00:38;134.60;;;52.27;;
13040;SDS011;6587;42.728;23.288;2023-12-20T10:03:05;135.23;;;51.03;;
13040;SDS011;6587;42.728;23.288;2023-12-20T10:05:33;133.93;;;51.77;;
13040;SDS011;6587;42.728;23.288;2023-12-20T10:08:02;134.03;;;52.93;;
13040;SDS011;6587;42.728;23.288;2023-12-20T10:10:29;140.20;;;50.83;;
13040;SDS011;6587;42.728;23.288;2023-12-20T10:13:02;135.97;;;51.30;;
13040;SDS011;6587;42.728;23.288;2023-12-20T10:15:32;149.50;;;53.23;;
13040;SDS011;6587;42.728;23.288;2023-12-20T10:17:59;138.97;;;52.50;;
13040;SDS011;6587;42.728;23.288;2023-12-20T10:20:27;158.27;;;56.73;;
13040;SDS011;6587;42.728;23.288;2023-12-20T10:22:55;127.77;;;50.87;;
13040;SDS011;6587;42.728;23.288;2023-12-20T10:25:24;135.63;;;53.43;;
13040;SDS011;6587;42.728;23.288;2023-12-20T10:28:08;154.67;;;58.37;;
13040;SDS011;6587;42.728;23.288;2023-12-20T10:30:35;174.93;;;60.40;;
13040;SDS011;6587;42.728;23.288;2023-12-20T10:33:02;155.50;;;56.43;;
13040;SDS011;6587;42.728;23.288;2023-12-20T10:35:29;155.30;;;61.47;;
13040;SDS011;6587;42.728;23.288;2023-12-20T10:37:56;139.37;;;55.90;;
13040;SDS011;6587;42.728;23.288;2023-12-20T10:40:26;142.67;;;57.80;;
13040;SDS011;6587;42.728;23.288;2023-12-20T10:42:55;141.60;;;55.73;;
13040;SDS011;6587;42.728;23.288;2023-12-20T10:45:23;131.87;;;51.87;;
13040;SDS011;6587;42.728;23.288;2023-12-20T10:47:50;127.53;;;54.33;;
13040;SDS011;6587;42.728;23.288;2023-12-20T10:50:17;135.87;;;55.13;;
13040;SDS011;6587;42.728;23.288;2023-12-20T10:52:45;139.03;;;54.57;;
13040;SDS011;6587;42.728;23.288;2023-12-20T10:55:13;132.97;;;52.73;;
13040;SDS011;6587;42.728;23.288;2023-12-20T10:57:42;135.83;;;56.70;;
13040;SDS011;6587;42.728;23.288;2023-12-20T11:00:16;132.07;;;53.67;;
13040;SDS011;6587;42.728;23.288;2023-12-20T11:02:44;127.83;;;51.80;;
13040;SDS011;6587;42.728;23.288;2023-12-20T11:05:15;119.73;;;52.60;;
13040;SDS011;6587;42.728;23.288;2023-12-20T11:07:53;124.93;;;53.10;;
13040;SDS011;6587;42.728;23.288;2023-12-20T11:10:29;121.27;;;53.17;;
13040;SDS011;6587;42.728;23.288;2023-12-20T11:13:01;133.70;;;56.07;;
13040;SDS011;6587;42.728;23.288;2023-12-20T11:15:35;136.13;;;57.57;;
13040;SDS011;6587;42.728;23.288;2023-12-20T11:18:03;119.23;;;53.10;;
13040;SDS011;6587;42.728;23.288;2023-12-20T11:20:37;121.93;;;52.37;;
13040;SDS011;6587;42.728;23.288;2023-12-20T11:23:05;119.83;;;54.30;;
13040;SDS011;6587;42.728;23.288;2023-12-20T11:25:44;127.00;;;54.70;;
13040;SDS011;6587;42.728;23.288;2023-12-20T11:28:14;127.23;;;55.43;;
13040;SDS011;6587;42.728;23.288;2023-12-20T11:30:46;135.73;;;58.23;;
13040;SDS011;6587;42.728;23.288;2023-12-20T11:33:14;133.20;;;60.03;;
13040;SDS011;6587;42.728;23.288;2023-12-20T11:35:41;136.90;;;61.23;;
13040;SDS011;6587;42.728;23.288;2023-12-20T11:38:08;174.63;;;71.23;;
13040;SDS011;6587;42.728;23.288;2023-12-20T11:40:36;161.63;;;61.87;;
13040;SDS011;6587;42.728;23.288;2023-12-20T11:43:03;141.93;;;57.93;;
13040;SDS011;6587;42.728;23.288;2023-12-20T11:45:32;154.53;;;67.23;;
13040;SDS011;6587;42.728;23.288;2023-12-20T11:48:00;168.00;;;62.43;;
13040;SDS011;6587;42.728;23.288;2023-12-20T11:50:28;149.03;;;63.23;;
13040;SDS011;6587;42.728;23.288;2023-12-20T11:52:56;162.83;;;66.93;;
13040;SDS011;6587;42.728;23.288;2023-12-20T11:55:23;210.67;;;85.73;;
13040;SDS011;6587;42.728;23.288;2023-12-20T11:57:50;197.23;;;91.50;;
13040;SDS011;6587;42.728;23.288;2023-12-20T12:00:18;226.70;;;97.47;;
13040;SDS011;6587;42.728;23.288;2023-12-20T12:02:56;236.63;;;100.27;;
13040;SDS011;6587;42.728;23.288;2023-12-20T12:05:23;238.23;;;99.80;;
13040;SDS011;6587;42.728;23.288;2023-12-20T12:07:51;237.43;;;98.40;;
13040;SDS011;6587;42.728;23.288;2023-12-20T12:10:18;221.50;;;97.40;;
13040;SDS011;6587;42.728;23.288;2023-12-20T12:12:46;212.20;;;95.63;;
13040;SDS011;6587;42.728;23.288;2023-12-20T12:15:13;217.03;;;92.03;;
13040;SDS011;6587;42.728;23.288;2023-12-20T12:17:41;227.57;;;91.30;;
13040;SDS011;6587;42.728;23.288;2023-12-20T12:20:09;209.93;;;89.00;;
13040;SDS011;6587;42.728;23.288;2023-12-20T12:22:37;211.27;;;90.93;;
13040;SDS011;6587;42.728;23.288;2023-12-20T12:25:16;197.27;;;83.30;;
13040;SDS011;6587;42.728;23.288;2023-12-20T12:27:44;195.07;;;80.60;;
13040;SDS011;6587;42.728;23.288;2023-12-20T12:30:11;184.27;;;79.13;;
13040;SDS011;6587;42.728;23.288;2023-12-20T12:32:38;174.00;;;74.33;;
13040;SDS011;6587;42.728;23.288;2023-12-20T12:35:07;191.10;;;83.77;;
13040;SDS011;6587;42.728;23.288;2023-12-20T12:37:36;187.53;;;78.23;;
13040;SDS011;6587;42.728;23.288;2023-12-20T12:40:05;166.33;;;73.77;;
13040;SDS011;6587;42.728;23.288;2023-12-20T12:42:32;171.17;;;69.50;;
13040;SDS011;6587;42.728;23.288;2023-12-20T12:44:59;160.80;;;66.73;;
13040;SDS011;6587;42.728;23.288;2023-12-20T12:47:26;154.93;;;64.07;;
13040;SDS011;6587;42.728;23.288;2023-12-20T12:49:53;152.77;;;63.47;;
13040;SDS011;6587;42.728;23.288;2023-12-20T12:52:20;146.53;;;62.77;;
13040;SDS011;6587;42.728;23.288;2023-12-20T12:54:48;126.73;;;58.93;;
13040;SDS011;6587;42.728;23.288;2023-12-20T12:57:15;120.43;;;53.67;;
13040;SDS011;6587;42.728;23.288;2023-12-20T12:59:42;136.07;;;56.30;;
13040;SDS011;6587;42.728;23.288;2023-12-20T13:02:11;133.53;;;56.53;;
13040;SDS011;6587;42.728;23.288;2023-12-20T13:04:38;133.43;;;56.60;;
13040;SDS011;6587;42.728;23.288;2023-12-20T13:07:05;136.63;;;56.80;;
13040;SDS011;6587;42.728;23.288;2023-12-20T13:09:32;134.40;;;58.13;;
13040;SDS011;6587;42.728;23.288;2023-12-20T13:12:01;132.00;;;55.73;;
13040;SDS011;6587;42.728;23.288;2023-12-20T13:14:29;135.47;;;53.03;;
13040;SDS011;6587;42.728;23.288;2023-12-20T13:16:57;142.23;;;57.07;;
13040;SDS011;6587;42.728;23.288;2023-12-20T13:19:24;134.90;;;54.30;;
13040;SDS011;6587;42.728;23.288;2023-12-20T13:21:51;149.03;;;55.87;;
13040;SDS011;6587;42.728;23.288;2023-12-20T13:24:18;137.67;;;57.50;;
13040;SDS011;6587;42.728;23.288;2023-12-20T13:26:45;141.50;;;55.83;;
13040;SDS011;6587;42.728;23.288;2023-12-20T13:29:13;144.90;;;57.03;;
13040;SDS011;6587;42.728;23.288;2023-12-20T13:31:40;154.27;;;55.70;;
13040;SDS011;6587;42.728;23.288;2023-12-20T13:34:07;140.70;;;53.40;;
13040;SDS011;6587;42.728;23.288;2023-12-20T13:36:35;153.13;;;57.30;;
13040;SDS011;6587;42.728;23.288;2023-12-20T13:39:02;139.23;;;54.50;;
13040;SDS011;6587;42.728;23.288;2023-12-20T13:41:30;139.53;;;55.67;;
13040;SDS011;6587;42.728;23.288;2023-12-20T13:43:57;151.13;;;52.90;;
13040;SDS011;6587;42.728;23.288;2023-12-20T13:46:25;137.13;;;54.50;;
13040;SDS011;6587;42.728;23.288;2023-12-20T13:48:52;149.53;;;55.40;;
13040;SDS011;6587;42.728;23.288;2023-12-20T13:51:19;130.33;;;52.07;;
13040;SDS011;6587;42.728;23.288;2023-12-20T13:53:46;150.10;;;55.50;;
13040;SDS011;6587;42.728;23.288;2023-12-20T13:56:14;159.27;;;58.23;;
13040;SDS011;6587;42.728;23.288;2023-12-20T13:58:41;143.90;;;54.83;;
13040;SDS011;6587;42.728;23.288;2023-12-20T14:01:08;150.00;;;57.63;;
13040;SDS011;6587;42.728;23.288;2023-12-20T14:03:37;177.43;;;68.67;;
13040;SDS011;6587;42.728;23.288;2023-12-20T14:06:04;172.50;;;61.67;;
13040;SDS011;6587;42.728;23.288;2023-12-20T14:08:31;152.30;;;59.13;;
13040;SDS011;6587;42.728;23.288;2023-12-20T14:10:58;168.00;;;62.80;;